Time;durP1;ratioP1;P1;durP2;ratioP2;P2;SDS_P1;SDS_P2;PMS_P1;PMS_P2;Temp;Humidity;BMP_temperature;BMP_pressure;BME280_temperature;BME280_humidity;BME280_pressure;Samples;Min_cycle;Max_cycle;Signal;HPM_P1;HPM_P2
2022/07/20 00:00:11;;;;;;;5.97;4.45;;;9.80;99.90;;;;;;5052669;28;20021;-75
2022/07/20 00:02:39;;;;;;;4.97;4.57;;;9.80;99.90;;;;;;5049692;28;20375;-75
2022/07/20 00:05:06;;;;;;;5.40;4.85;;;9.80;99.90;;;;;;5052474;28;20017;-76
2022/07/20 00:07:34;;;;;;;5.50;4.88;;;9.90;99.90;;;;;;5052480;28;20533;-74
2022/07/20 00:12:46;;;;;;;6.28;4.63;;;10.10;99.90;;;;;;5050863;28;20019;-74
2022/07/20 00:15:14;;;;;;;6.95;5.22;;;10.20;99.90;;;;;;5052320;28;20174;-76
2022/07/20 00:17:41;;;;;;;6.50;4.72;;;10.20;99.90;;;;;;5052608;28;20017;-75
2022/07/20 00:20:10;;;;;;;5.85;4.85;;;10.30;99.90;;;;;;5052482;28;20029;-74
2022/07/20 00:22:37;;;;;;;5.22;4.72;;;10.30;99.90;;;;;;5052102;28;20122;-74
2022/07/20 00:25:05;;;;;;;5.03;4.38;;;10.30;99.90;;;;;;5052230;28;20021;-75
2022/07/20 00:27:32;;;;;;;5.88;5.32;;;10.30;99.90;;;;;;5052343;28;20033;-75
2022/07/20 00:30:00;;;;;;;7.03;4.75;;;10.30;99.90;;;;;;5049944;28;20028;-75
2022/07/20 00:32:27;;;;;;;8.60;4.78;;;10.40;99.90;;;;;;5051029;28;20059;-75
2022/07/20 00:34:54;;;;;;;5.22;4.35;;;10.40;99.90;;;;;;5052210;28;20458;-76
2022/07/20 00:37:22;;;;;;;4.75;4.18;;;10.50;99.90;;;;;;5052257;28;20021;-75
2022/07/20 00:39:49;;;;;;;5.38;4.05;;;10.50;99.90;;;;;;5052279;28;20021;-75
2022/07/20 00:42:16;;;;;;;7.45;4.53;;;10.60;99.90;;;;;;5051683;28;20032;-75
2022/07/20 00:44:43;;;;;;;6.30;4.22;;;10.60;99.90;;;;;;5069821;28;20440;-75
2022/07/20 00:47:11;;;;;;;4.68;4.28;;;10.60;99.90;;;;;;5062512;28;20117;-76
2022/07/20 00:49:38;;;;;;;3.00;2.70;;;10.60;99.90;;;;;;5069147;28;20021;-75
2022/07/20 00:52:06;;;;;;;3.95;2.88;;;10.50;99.90;;;;;;5054210;28;20029;-75
2022/07/20 00:54:33;;;;;;;5.57;3.60;;;10.50;99.90;;;;;;5059944;28;20020;-75
2022/07/20 00:57:01;;;;;;;4.00;3.13;;;10.50;99.90;;;;;;5065640;28;20036;-75
2022/07/20 00:59:29;;;;;;;4.95;3.08;;;10.60;99.90;;;;;;5066145;28;20024;-76
2022/07/20 01:01:59;;;;;;;3.95;2.50;;;10.60;99.90;;;;;;5070752;28;20102;-76
2022/07/20 01:04:26;;;;;;;3.50;2.60;;;10.70;99.90;;;;;;5058982;28;20405;-76
2022/07/20 01:06:54;;;;;;;3.50;2.60;;;10.70;99.90;;;;;;5063893;28;20029;-76
2022/07/20 01:09:22;;;;;;;4.15;2.40;;;10.80;99.90;;;;;;5061477;28;20025;-76
2022/07/20 01:11:49;;;;;;;3.28;1.77;;;10.80;99.90;;;;;;5056258;28;20025;-75
2022/07/20 01:14:16;;;;;;;1.85;1.60;;;10.80;99.90;;;;;;5058503;28;20135;-76
2022/07/20 01:16:44;;;;;;;2.58;1.73;;;10.70;99.90;;;;;;5056353;28;20025;-76
2022/07/20 01:19:11;;;;;;;4.78;1.70;;;10.80;99.90;;;;;;5056072;28;20564;-75
2022/07/20 01:21:42;;;;;;;1.63;1.33;;;10.80;99.90;;;;;;5066010;28;20032;-75
2022/07/20 01:24:14;;;;;;;3.05;1.70;;;10.80;99.90;;;;;;5057636;28;20029;-76
2022/07/20 01:26:43;;;;;;;3.65;1.50;;;10.80;99.90;;;;;;5062919;28;20457;-76
2022/07/20 01:29:12;;;;;;;3.40;1.38;;;10.90;99.90;;;;;;5054892;28;20075;-75
2022/07/20 01:31:40;;;;;;;5.75;1.40;;;11.00;99.90;;;;;;5055384;28;20037;-76
2022/07/20 01:34:07;;;;;;;3.53;1.38;;;11.00;99.90;;;;;;5057271;28;20097;-75
2022/07/20 01:36:35;;;;;;;2.55;1.38;;;11.00;99.90;;;;;;5053735;28;20386;-75
2022/07/20 01:39:02;;;;;;;3.67;1.88;;;11.00;99.90;;;;;;5054493;28;20028;-76
2022/07/20 01:41:29;;;;;;;5.10;1.90;;;11.00;99.90;;;;;;5054427;28;20009;-76
2022/07/20 01:43:57;;;;;;;2.17;1.60;;;11.00;99.90;;;;;;5054190;28;20040;-75
2022/07/20 01:46:24;;;;;;;3.53;1.75;;;11.00;99.90;;;;;;5054281;28;20371;-76
2022/07/20 01:48:51;;;;;;;4.18;1.63;;;11.00;99.90;;;;;;5053951;28;20017;-76
2022/07/20 01:51:19;;;;;;;2.28;1.77;;;11.00;99.90;;;;;;5052406;28;20025;-76
2022/07/20 01:53:46;;;;;;;4.40;1.70;;;11.10;99.90;;;;;;5054062;28;20060;-77
2022/07/20 01:56:13;;;;;;;2.20;1.45;;;11.10;99.90;;;;;;5054299;28;20024;-76
2022/07/20 01:58:40;;;;;;;3.33;0.93;;;11.10;99.90;;;;;;5051507;28;20386;-76
2022/07/20 02:01:08;;;;;;;2.85;2.10;;;11.10;99.90;;;;;;5054082;28;20021;-76
2022/07/20 02:03:37;;;;;;;6.30;1.83;;;11.20;99.90;;;;;;5053894;28;20087;-76
2022/07/20 02:06:05;;;;;;;4.07;1.27;;;11.30;99.90;;;;;;5053595;28;20059;-77
2022/07/20 02:08:32;;;;;;;4.05;1.10;;;11.40;99.90;;;;;;5053967;28;20027;-75
2022/07/20 02:11:00;;;;;;;1.63;1.25;;;11.50;99.90;;;;;;5052476;28;20025;-77
2022/07/20 02:13:27;;;;;;;5.97;1.00;;;11.50;99.90;;;;;;5053404;28;20449;-76
2022/07/20 02:18:40;;;;;;;1.38;0.70;;;11.50;99.90;;;;;;5052655;28;20070;-77
2022/07/20 02:21:07;;;;;;;1.48;0.85;;;11.60;99.90;;;;;;5054533;28;20049;-77
2022/07/20 02:23:35;;;;;;;1.92;0.70;;;11.60;99.90;;;;;;5053872;28;20442;-78
2022/07/20 02:26:02;;;;;;;1.88;0.93;;;11.70;99.90;;;;;;5053974;28;20087;-77
2022/07/20 02:28:30;;;;;;;1.55;0.80;;;11.70;99.90;;;;;;5053882;28;20029;-78
2022/07/20 02:30:57;;;;;;;0.88;0.70;;;11.80;99.90;;;;;;5053853;28;20025;-77
2022/07/20 02:33:25;;;;;;;2.80;0.95;;;11.80;99.90;;;;;;5053679;28;20017;-78
2022/07/20 02:35:52;;;;;;;3.58;0.70;;;12.00;99.90;;;;;;5054124;28;20103;-78
2022/07/20 02:38:26;;;;;;;6.00;1.33;;;12.00;99.90;;;;;;5051235;28;20028;-78
2022/07/20 02:40:54;;;;;;;1.38;0.60;;;12.10;99.90;;;;;;5053753;28;20020;-79
2022/07/20 02:43:22;;;;;;;2.80;0.88;;;12.10;99.90;;;;;;5054341;28;20025;-78
2022/07/20 02:45:49;;;;;;;1.35;0.70;;;12.10;99.90;;;;;;5054183;28;20041;-78
2022/07/20 02:48:19;;;;;;;2.13;0.70;;;12.00;99.90;;;;;;5054136;28;20423;-78
2022/07/20 02:50:47;;;;;;;1.60;0.60;;;12.00;99.90;;;;;;5053997;28;20025;-77
2022/07/20 02:53:14;;;;;;;2.33;0.63;;;11.90;99.90;;;;;;5053917;28;20032;-78
2022/07/20 02:55:43;;;;;;;1.13;0.68;;;11.90;99.90;;;;;;5054046;28;20040;-78
2022/07/20 02:58:11;;;;;;;1.45;0.63;;;11.90;99.90;;;;;;5054417;28;20473;-78
2022/07/20 03:00:40;;;;;;;0.57;0.47;;;11.80;99.90;;;;;;5056929;28;20053;-77
2022/07/20 03:03:09;;;;;;;3.65;0.68;;;11.80;99.90;;;;;;5064837;28;20049;-77
2022/07/20 03:05:37;;;;;;;2.35;0.77;;;11.70;99.90;;;;;;5052167;28;20047;-77
2022/07/20 03:08:08;;;;;;;3.13;0.70;;;11.70;99.90;;;;;;5065602;28;20024;-78
2022/07/20 03:10:36;;;;;;;2.20;1.13;;;11.70;99.90;;;;;;5068381;28;20025;-77
2022/07/20 03:13:04;;;;;;;0.85;0.85;;;11.70;99.90;;;;;;5059262;28;20678;-78
2022/07/20 03:15:31;;;;;;;2.15;1.42;;;11.70;99.90;;;;;;5051784;28;20083;-77
2022/07/20 03:17:59;;;;;;;3.80;1.63;;;11.80;99.90;;;;;;5067062;28;20024;-76
2022/07/20 03:20:29;;;;;;;3.67;1.35;;;11.80;99.90;;;;;;5055356;28;20028;-77
2022/07/20 03:22:57;;;;;;;2.58;0.70;;;11.80;99.90;;;;;;5073791;28;20020;-77
2022/07/20 03:25:25;;;;;;;2.58;1.85;;;11.80;99.90;;;;;;5073334;28;20396;-77
2022/07/20 03:27:54;;;;;;;2.75;1.65;;;11.80;99.90;;;;;;5056165;28;20033;-77
2022/07/20 03:30:21;;;;;;;1.40;0.50;;;11.80;99.90;;;;;;5052788;28;20036;-77
2022/07/20 03:32:49;;;;;;;3.00;1.85;;;11.80;99.90;;;;;;5053044;28;20033;-77
2022/07/20 03:35:17;;;;;;;2.30;0.93;;;11.80;99.90;;;;;;5053301;28;20027;-77
2022/07/20 03:37:44;;;;;;;0.73;0.60;;;11.90;99.90;;;;;;5053389;28;20039;-77
2022/07/20 03:40:12;;;;;;;0.80;0.50;;;12.00;99.90;;;;;;5051708;28;20036;-77
2022/07/20 03:42:39;;;;;;;2.65;0.60;;;12.00;99.90;;;;;;5050715;28;20551;-77
2022/07/20 03:45:07;;;;;;;0.90;0.50;;;12.00;99.90;;;;;;5053254;28;20021;-77
2022/07/20 03:47:34;;;;;;;0.80;0.77;;;12.00;99.90;;;;;;5052524;28;20059;-77
2022/07/20 03:50:02;;;;;;;0.70;0.60;;;12.00;99.90;;;;;;5052941;28;20013;-77
2022/07/20 03:52:29;;;;;;;0.35;0.30;;;12.10;99.90;;;;;;5052663;28;20037;-77
2022/07/20 03:54:56;;;;;;;1.80;0.55;;;12.10;99.90;;;;;;5053245;28;20017;-77
2022/07/20 03:57:24;;;;;;;0.63;0.40;;;12.10;99.90;;;;;;5052783;28;20369;-77
2022/07/20 03:59:51;;;;;;;2.25;0.75;;;12.20;99.90;;;;;;5052947;28;20064;-77
2022/07/20 04:02:18;;;;;;;1.60;0.60;;;12.20;99.90;;;;;;5067913;28;20151;-77
2022/07/20 04:04:46;;;;;;;2.20;1.05;;;12.30;99.90;;;;;;5039194;28;20016;-77
2022/07/20 04:07:13;;;;;;;5.07;0.50;;;12.30;99.90;;;;;;5064130;28;20025;-77
2022/07/20 04:09:44;;;;;;;2.50;0.70;;;12.30;99.90;;;;;;5052486;28;20026;-77
2022/07/20 04:12:15;;;;;;;0.63;0.50;;;12.40;99.90;;;;;;5053620;28;20037;-77
2022/07/20 04:14:43;;;;;;;0.80;0.60;;;12.40;99.90;;;;;;5052928;28;20492;-77
2022/07/20 04:17:11;;;;;;;2.22;1.00;;;12.40;99.90;;;;;;5053135;28;20397;-77
2022/07/20 04:19:40;;;;;;;1.33;1.00;;;12.50;99.90;;;;;;5053157;28;20025;-77
2022/07/20 04:22:08;;;;;;;1.02;0.60;;;12.50;99.90;;;;;;5054555;28;20378;-77
2022/07/20 04:24:37;;;;;;;5.22;1.48;;;12.50;99.90;;;;;;5056818;28;20042;-77
2022/07/20 04:27:05;;;;;;;2.85;1.90;;;12.50;99.90;;;;;;5056736;28;20478;-77
2022/07/20 04:29:33;;;;;;;2.53;1.10;;;12.50;99.90;;;;;;5056464;28;20485;-77
2022/07/20 04:32:01;;;;;;;1.85;0.50;;;12.50;99.90;;;;;;5056705;28;20025;-77
2022/07/20 04:34:29;;;;;;;1.15;0.60;;;12.40;99.90;;;;;;5056485;28;20021;-77
2022/07/20 04:36:57;;;;;;;3.17;0.57;;;12.40;99.90;;;;;;5056642;28;20470;-77
2022/07/20 04:39:24;;;;;;;1.48;0.50;;;12.40;99.90;;;;;;5056609;28;20056;-76
2022/07/20 04:41:52;;;;;;;2.35;0.90;;;12.30;99.90;;;;;;5056622;28;20040;-77
2022/07/20 04:44:20;;;;;;;0.93;0.50;;;12.30;99.90;;;;;;5056418;28;20025;-77
2022/07/20 04:46:48;;;;;;;1.10;0.30;;;12.30;99.90;;;;;;5056291;28;20037;-77
2022/07/20 04:49:15;;;;;;;1.60;0.70;;;12.20;99.90;;;;;;5056440;28;20417;-77
2022/07/20 04:51:43;;;;;;;1.63;0.80;;;12.20;99.90;;;;;;5056381;28;20456;-76
2022/07/20 04:54:11;;;;;;;1.70;0.50;;;12.20;99.90;;;;;;5056081;28;20025;-77
2022/07/20 04:56:39;;;;;;;2.42;0.60;;;12.20;99.90;;;;;;5056522;28;20025;-77
2022/07/20 04:59:06;;;;;;;1.00;0.55;;;12.20;99.90;;;;;;5056249;28;20017;-76
2022/07/20 05:01:34;;;;;;;2.13;0.50;;;12.10;99.90;;;;;;5056507;28;20043;-76
2022/07/20 05:04:02;;;;;;;2.58;0.70;;;12.20;99.90;;;;;;5066014;28;20026;-77
2022/07/20 05:06:29;;;;;;;1.88;0.50;;;12.10;99.90;;;;;;5055324;28;20052;-77
2022/07/20 05:08:57;;;;;;;1.05;0.60;;;12.10;99.90;;;;;;5054751;28;20089;-77
2022/07/20 05:11:29;;;;;;;1.00;0.60;;;12.10;99.90;;;;;;5053417;28;20051;-77
2022/07/20 05:13:57;;;;;;;2.95;0.65;;;12.10;99.90;;;;;;5053760;28;20023;-76
2022/07/20 05:16:25;;;;;;;1.98;0.70;;;12.10;99.90;;;;;;5055807;28;20127;-76
2022/07/20 05:18:52;;;;;;;1.20;0.80;;;12.20;99.90;;;;;;5057172;28;20664;-77
2022/07/20 05:21:20;;;;;;;1.75;0.77;;;12.20;99.90;;;;;;5052473;28;20021;-77
2022/07/20 05:23:48;;;;;;;3.47;0.70;;;12.30;99.90;;;;;;5055574;28;20067;-77
2022/07/20 05:26:15;;;;;;;1.00;0.40;;;12.30;99.90;;;;;;5055462;28;20029;-75
2022/07/20 05:28:43;;;;;;;1.63;0.60;;;12.30;99.90;;;;;;5058419;28;20020;-75
2022/07/20 05:31:13;;;;;;;1.85;0.50;;;12.30;99.90;;;;;;5053561;28;20486;-75
2022/07/20 05:33:42;;;;;;;1.67;0.73;;;12.30;99.90;;;;;;5053079;28;20036;-77
2022/07/20 05:36:11;;;;;;;1.52;0.70;;;12.30;99.90;;;;;;5051258;28;20528;-76
2022/07/20 05:38:38;;;;;;;2.95;0.70;;;12.40;99.90;;;;;;5053386;28;20031;-76
2022/07/20 05:41:07;;;;;;;1.80;0.63;;;12.50;99.90;;;;;;5054786;28;20029;-76
2022/07/20 05:43:35;;;;;;;1.40;0.45;;;12.50;99.90;;;;;;5055697;28;20025;-76
2022/07/20 05:46:03;;;;;;;4.55;0.70;;;12.30;99.90;;;;;;5055892;28;20489;-76
2022/07/20 05:48:32;;;;;;;3.22;0.68;;;12.30;99.90;;;;;;5058200;28;20380;-76
2022/07/20 05:51:00;;;;;;;1.77;0.80;;;12.20;99.90;;;;;;5053635;28;20029;-76
2022/07/20 05:53:28;;;;;;;4.13;0.75;;;12.10;99.90;;;;;;5053177;28;20611;-76
2022/07/20 05:55:55;;;;;;;2.00;0.90;;;12.00;99.90;;;;;;5054665;28;20020;-76
2022/07/20 05:58:23;;;;;;;2.47;0.98;;;11.90;99.90;;;;;;5056500;28;20029;-76
2022/07/20 06:00:51;;;;;;;2.38;1.00;;;11.90;99.90;;;;;;5055678;28;20400;-76
2022/07/20 06:03:19;;;;;;;1.55;0.80;;;11.80;99.90;;;;;;5055148;28;20111;-75
2022/07/20 06:05:46;;;;;;;2.38;0.95;;;11.70;99.90;;;;;;5055133;28;20108;-75
2022/07/20 06:08:14;;;;;;;5.18;0.70;;;11.60;99.90;;;;;;5052679;28;20040;-74
2022/07/20 06:10:42;;;;;;;0.60;0.50;;;11.60;99.90;;;;;;5056596;28;20047;-75
2022/07/20 06:13:09;;;;;;;2.30;1.23;;;11.50;99.90;;;;;;5055012;28;20025;-74
2022/07/20 06:15:39;;;;;;;2.10;0.70;;;11.50;99.90;;;;;;5055028;28;20017;-77
2022/07/20 06:18:07;;;;;;;2.85;0.80;;;11.40;99.90;;;;;;5055029;28;20020;-77
2022/07/20 06:20:36;;;;;;;5.25;1.20;;;11.40;99.90;;;;;;5056415;28;20023;-77
2022/07/20 06:23:04;;;;;;;3.00;1.05;;;11.50;99.90;;;;;;5054929;28;20075;-77
2022/07/20 06:25:32;;;;;;;2.05;0.95;;;11.40;99.90;;;;;;5054730;28;20500;-76
2022/07/20 06:28:00;;;;;;;2.22;1.20;;;11.40;99.90;;;;;;5054254;28;20033;-76
2022/07/20 06:30:28;;;;;;;2.00;0.70;;;11.30;99.90;;;;;;5056259;28;20579;-76
2022/07/20 06:32:56;;;;;;;2.75;0.70;;;11.30;99.90;;;;;;5051629;28;20493;-76
2022/07/20 06:35:24;;;;;;;3.75;0.80;;;11.20;99.90;;;;;;5052155;28;20056;-76
2022/07/20 06:37:53;;;;;;;2.08;1.15;;;11.20;99.90;;;;;;5052528;28;20432;-77
2022/07/20 06:40:21;;;;;;;4.40;0.90;;;11.20;99.90;;;;;;5051301;28;20029;-76
2022/07/20 06:42:49;;;;;;;3.08;1.40;;;11.20;99.90;;;;;;5052192;28;20107;-77
2022/07/20 06:45:16;;;;;;;2.35;0.95;;;11.10;99.90;;;;;;5051061;28;20024;-76
2022/07/20 06:47:44;;;;;;;5.25;1.00;;;11.10;99.90;;;;;;5050616;28;20502;-74
2022/07/20 06:50:12;;;;;;;1.75;1.17;;;11.00;99.90;;;;;;5053277;28;20043;-75
2022/07/20 06:52:40;;;;;;;1.88;0.98;;;11.00;99.90;;;;;;5051909;28;20059;-75
2022/07/20 06:55:08;;;;;;;2.28;1.85;;;10.90;99.90;;;;;;5050330;28;20446;-74
2022/07/20 06:57:37;;;;;;;3.35;1.08;;;10.90;99.90;;;;;;5053314;28;20501;-75
2022/07/20 07:00:07;;;;;;;3.45;2.50;;;10.90;99.90;;;;;;5053189;28;20044;-75
2022/07/20 07:02:35;;;;;;;3.85;2.92;;;10.80;99.90;;;;;;5053807;28;20094;-75
2022/07/20 07:05:03;;;;;;;3.00;1.73;;;10.80;99.90;;;;;;5051462;28;20405;-75
2022/07/20 07:07:31;;;;;;;4.60;1.85;;;10.80;99.90;;;;;;5053133;28;20106;-75
2022/07/20 07:09:59;;;;;;;2.30;1.52;;;10.70;99.90;;;;;;5053101;28;20009;-76
2022/07/20 07:12:27;;;;;;;2.47;1.50;;;10.70;99.90;;;;;;5053960;28;20029;-75
2022/07/20 07:14:54;;;;;;;2.83;1.35;;;10.70;99.90;;;;;;5052294;28;20051;-76
2022/07/20 07:17:22;;;;;;;2.75;1.55;;;10.70;99.90;;;;;;5053041;28;20083;-75
2022/07/20 07:19:50;;;;;;;1.80;1.42;;;10.70;99.90;;;;;;5050533;28;20108;-75
2022/07/20 07:22:18;;;;;;;2.80;1.70;;;10.70;99.90;;;;;;5052062;28;20043;-77
2022/07/20 07:24:45;;;;;;;4.53;1.95;;;10.60;99.90;;;;;;5051254;28;20017;-74
2022/07/20 07:27:13;;;;;;;3.08;2.50;;;10.60;99.90;;;;;;5052143;28;20024;-75
2022/07/20 07:29:41;;;;;;;3.63;1.77;;;10.60;99.90;;;;;;5052912;28;20082;-76
2022/07/20 07:32:09;;;;;;;2.90;2.10;;;10.60;99.90;;;;;;5050243;28;20021;-76
2022/07/20 07:34:36;;;;;;;2.67;2.38;;;10.70;99.90;;;;;;5051922;28;20078;-75
2022/07/20 07:37:04;;;;;;;4.47;2.50;;;10.60;99.90;;;;;;5052628;28;20082;-75
2022/07/20 07:39:32;;;;;;;3.65;2.90;;;10.60;99.90;;;;;;5052186;28;20067;-76
2022/07/20 07:42:00;;;;;;;4.35;2.45;;;10.60;99.90;;;;;;5052950;28;20024;-76
2022/07/20 07:44:27;;;;;;;8.20;2.50;;;10.60;99.90;;;;;;5053454;28;20023;-76
2022/07/20 07:46:55;;;;;;;4.03;2.15;;;10.60;99.90;;;;;;5051296;28;20028;-76
2022/07/20 07:49:23;;;;;;;4.10;2.92;;;10.60;99.90;;;;;;5052683;28;20029;-75
2022/07/20 07:51:50;;;;;;;4.28;2.35;;;10.60;99.90;;;;;;5052673;28;20481;-76
2022/07/20 07:54:18;;;;;;;10.25;3.00;;;10.60;99.90;;;;;;5052941;28;20017;-75
2022/07/20 07:56:46;;;;;;;5.57;3.10;;;10.60;99.90;;;;;;5052720;28;20083;-72
2022/07/20 07:59:14;;;;;;;5.07;2.80;;;10.60;99.90;;;;;;5054872;28;20009;-75
2022/07/20 08:01:41;;;;;;;8.82;3.80;;;10.50;99.90;;;;;;5054664;28;20537;-75
2022/07/20 08:04:10;;;;;;;8.40;4.70;;;10.50;99.90;;;;;;5052668;28;20060;-74
2022/07/20 08:06:38;;;;;;;4.18;3.60;;;10.50;99.90;;;;;;5055517;28;20040;-76
2022/07/20 08:09:06;;;;;;;5.00;3.58;;;10.40;99.90;;;;;;5054755;28;20017;-71
2022/07/20 08:11:33;;;;;;;7.60;3.88;;;10.40;99.90;;;;;;5055066;28;20431;-71
2022/07/20 08:14:02;;;;;;;6.40;3.78;;;10.40;99.90;;;;;;5054396;28;20020;-73
2022/07/20 08:16:32;;;;;;;6.68;4.35;;;10.40;99.90;;;;;;5054616;28;20020;-75
2022/07/20 08:19:00;;;;;;;6.43;4.75;;;10.40;99.90;;;;;;5054463;28;20028;-74
2022/07/20 08:21:27;;;;;;;4.63;4.07;;;10.30;99.90;;;;;;5054674;28;20032;-72
2022/07/20 08:23:55;;;;;;;6.30;3.83;;;10.30;99.90;;;;;;5054311;28;20067;-74
2022/07/20 08:26:23;;;;;;;9.38;3.75;;;10.30;99.90;;;;;;5055345;28;20031;-74
2022/07/20 08:28:54;;;;;;;3.63;3.15;;;10.20;99.90;;;;;;5055877;28;20021;-76
2022/07/20 08:31:21;;;;;;;5.28;2.80;;;10.20;99.90;;;;;;5054914;28;20057;-75
2022/07/20 08:33:49;;;;;;;4.95;3.40;;;10.20;99.90;;;;;;5053484;28;20096;-76
2022/07/20 08:36:17;;;;;;;4.97;3.13;;;10.20;99.90;;;;;;5056547;28;20020;-74
2022/07/20 08:38:45;;;;;;;7.13;3.47;;;10.20;99.90;;;;;;5056455;28;20017;-75
2022/07/20 08:41:13;;;;;;;5.40;3.03;;;10.20;99.90;;;;;;5056082;28;20051;-76
2022/07/20 08:43:41;;;;;;;8.30;4.15;;;10.20;99.90;;;;;;5056555;28;20017;-75
2022/07/20 08:46:09;;;;;;;6.28;4.18;;;10.20;99.90;;;;;;5053153;28;20029;-75
2022/07/20 08:48:37;;;;;;;5.82;4.18;;;10.20;99.90;;;;;;5056905;28;20031;-74
2022/07/20 08:51:04;;;;;;;7.63;3.92;;;10.20;99.90;;;;;;5055862;28;20420;-74
2022/07/20 08:53:32;;;;;;;5.82;3.88;;;10.20;99.90;;;;;;5055548;28;20017;-75
2022/07/20 08:56:00;;;;;;;5.93;3.47;;;10.30;99.90;;;;;;5056546;28;20023;-77
2022/07/20 08:58:28;;;;;;;5.53;3.92;;;10.30;99.90;;;;;;5056117;28;20082;-76
2022/07/20 09:00:55;;;;;;;8.02;3.80;;;10.20;99.90;;;;;;5055259;28;20070;-74
2022/07/20 09:03:23;;;;;;;4.40;3.80;;;10.30;99.90;;;;;;5054210;28;20046;-73
2022/07/20 09:06:04;;;;;;;5.63;3.45;;;10.20;99.90;;;;;;5049138;28;20025;-72
2022/07/20 09:08:33;;;;;;;4.90;3.30;;;10.20;99.90;;;;;;5050761;28;20021;-72
2022/07/20 09:11:02;;;;;;;6.03;3.85;;;10.20;99.90;;;;;;5048846;28;20126;-73
2022/07/20 09:13:32;;;;;;;3.85;3.45;;;10.20;99.90;;;;;;5048459;28;20053;-74
2022/07/20 09:16:03;;;;;;;5.32;3.92;;;10.10;99.90;;;;;;5036092;28;20114;-74
2022/07/20 09:18:33;;;;;;;6.45;4.95;;;10.10;99.90;;;;;;5035844;28;20018;-75
2022/07/20 09:21:10;;;;;;;5.15;4.05;;;10.10;99.90;;;;;;5034657;28;20013;-75
2022/07/20 09:23:54;;;;;;;7.68;4.20;;;10.10;99.90;;;;;;5033974;28;20021;-75
2022/07/20 09:26:22;;;;;;;5.13;4.63;;;10.10;99.90;;;;;;5035030;28;20037;-76
2022/07/20 09:28:54;;;;;;;5.53;4.65;;;10.10;99.90;;;;;;5037624;28;20481;-75
2022/07/20 09:31:33;;;;;;;6.88;4.38;;;10.10;99.90;;;;;;5035888;28;20432;-76
2022/07/20 09:34:14;;;;;;;5.25;4.22;;;10.10;99.90;;;;;;5035348;28;20024;-76
2022/07/20 09:36:45;;;;;;;6.65;4.82;;;10.10;99.90;;;;;;5035031;28;20010;-76
2022/07/20 09:39:18;;;;;;;5.88;5.35;;;10.10;99.90;;;;;;5034812;28;20020;-73
2022/07/20 09:41:59;;;;;;;12.02;6.85;;;10.10;99.90;;;;;;5033640;28;20025;-76
2022/07/20 09:44:29;;;;;;;9.07;5.80;;;10.10;99.90;;;;;;5035396;28;20047;-76
2022/07/20 09:46:58;;;;;;;8.40;5.82;;;10.20;99.90;;;;;;5034747;28;20036;-74
2022/07/20 09:49:37;;;;;;;7.15;5.15;;;10.20;99.90;;;;;;5034666;28;20130;-75
2022/07/20 09:52:06;;;;;;;5.40;4.68;;;10.20;99.90;;;;;;5032945;28;20051;-73
2022/07/20 09:54:33;;;;;;;7.78;4.80;;;10.10;99.90;;;;;;5034786;28;20029;-74
2022/07/20 09:57:01;;;;;;;6.82;4.95;;;10.20;99.90;;;;;;5034642;28;20013;-74
2022/07/20 09:59:29;;;;;;;6.35;5.15;;;10.10;99.90;;;;;;5037307;28;20124;-72
2022/07/20 10:01:56;;;;;;;6.95;5.25;;;10.10;99.90;;;;;;5035668;28;20029;-74
2022/07/20 10:04:25;;;;;;;8.00;5.40;;;10.20;99.90;;;;;;5036875;28;20034;-74
2022/07/20 10:06:54;;;;;;;8.88;5.63;;;10.20;99.90;;;;;;5036562;28;20037;-74
2022/07/20 10:09:22;;;;;;;6.55;5.57;;;10.20;99.90;;;;;;5037388;28;20093;-74
2022/07/20 10:11:49;;;;;;;7.85;5.78;;;10.20;99.90;;;;;;5034205;28;20028;-74
2022/07/20 10:14:23;;;;;;;12.57;5.82;;;10.20;99.90;;;;;;5034548;28;20360;-72
2022/07/20 10:16:53;;;;;;;8.73;6.70;;;10.20;99.90;;;;;;5034727;28;20022;-74
2022/07/20 10:19:41;;;;;;;9.32;7.95;;;10.20;99.90;;;;;;5033268;28;20032;-76
2022/07/20 10:22:10;;;;;;;12.25;7.18;;;10.20;99.90;;;;;;5035695;28;20024;-76
2022/07/20 10:24:39;;;;;;;9.85;7.10;;;10.20;99.90;;;;;;5039243;28;20755;-77
2022/07/20 10:27:10;;;;;;;9.32;7.03;;;10.20;99.90;;;;;;5035692;28;20056;-74
2022/07/20 10:29:45;;;;;;;8.63;7.03;;;10.20;99.90;;;;;;5036538;28;20009;-75
2022/07/20 10:32:16;;;;;;;11.20;7.22;;;10.20;99.90;;;;;;5034060;28;20017;-76
2022/07/20 10:34:49;;;;;;;13.23;7.07;;;10.20;99.90;;;;;;5033278;28;20175;-75
2022/07/20 10:37:23;;;;;;;8.05;6.78;;;10.20;99.90;;;;;;5036076;28;20108;-73
2022/07/20 10:40:06;;;;;;;4.95;3.63;;;10.20;99.90;;;;;;5036636;28;20358;-76
2022/07/20 10:42:40;;;;;;;4.90;3.38;;;10.20;99.90;;;;;;5035957;28;20083;-74
2022/07/20 10:48:11;;;;;;;7.32;5.65;;;10.20;99.90;;;;;;5036410;28;20104;-76
2022/07/20 10:50:50;;;;;;;12.32;7.22;;;10.20;99.90;;;;;;5035606;28;20025;-75
2022/07/20 10:53:17;;;;;;;10.40;6.47;;;10.20;99.90;;;;;;5034967;28;20021;-77
2022/07/20 10:56:05;;;;;;;10.75;5.45;;;10.20;99.90;;;;;;5039234;28;20413;-75
2022/07/20 10:58:36;;;;;;;7.45;5.95;;;10.20;99.90;;;;;;5036863;28;20049;-75
2022/07/20 11:01:09;;;;;;;7.28;5.47;;;10.20;99.90;;;;;;5037022;28;20061;-73
2022/07/20 11:03:42;;;;;;;8.52;5.57;;;10.20;99.90;;;;;;5042063;28;20058;-75
2022/07/20 11:06:14;;;;;;;10.32;6.25;;;10.10;99.90;;;;;;5039764;28;20057;-75
2022/07/20 11:08:44;;;;;;;6.97;5.13;;;10.10;99.90;;;;;;5037758;28;20019;-75
2022/07/20 11:11:25;;;;;;;7.80;5.18;;;10.10;99.90;;;;;;5039037;28;20060;-75
2022/07/20 11:13:53;;;;;;;8.82;5.78;;;10.10;99.90;;;;;;5037835;28;20028;-75
2022/07/20 11:16:23;;;;;;;7.95;5.55;;;10.10;99.90;;;;;;5035799;28;20087;-75
2022/07/20 11:18:51;;;;;;;7.68;5.97;;;10.10;99.90;;;;;;5037517;28;20447;-74
2022/07/20 11:21:27;;;;;;;8.00;6.68;;;10.10;99.90;;;;;;5035898;28;20104;-75
2022/07/20 11:23:54;;;;;;;9.00;6.60;;;10.10;99.90;;;;;;5035791;28;20009;-76
2022/07/20 11:26:22;;;;;;;9.10;6.80;;;10.10;99.90;;;;;;5034950;28;20036;-75
2022/07/20 11:28:55;;;;;;;12.27;6.80;;;10.10;99.90;;;;;;5032666;28;20023;-75
2022/07/20 11:31:28;;;;;;;9.68;7.07;;;10.10;99.90;;;;;;5033946;28;20470;-75
2022/07/20 11:33:57;;;;;;;7.43;6.38;;;10.10;99.90;;;;;;5034062;28;20025;-75
2022/07/20 11:36:26;;;;;;;8.02;6.43;;;10.10;99.90;;;;;;5032242;28;20030;-74
2022/07/20 11:38:59;;;;;;;7.55;5.75;;;10.10;99.90;;;;;;5039117;28;20017;-72
2022/07/20 11:41:29;;;;;;;7.35;5.60;;;10.10;99.90;;;;;;5036354;28;20025;-74
2022/07/20 11:43:57;;;;;;;9.55;6.65;;;10.10;99.90;;;;;;5036327;28;20540;-75
2022/07/20 11:46:40;;;;;;;6.60;5.70;;;10.10;99.90;;;;;;5039279;28;20033;-74
2022/07/20 11:49:10;;;;;;;8.27;5.88;;;10.00;99.90;;;;;;5036554;28;20544;-76
2022/07/20 11:51:38;;;;;;;7.72;6.43;;;10.00;99.90;;;;;;5044706;28;20021;-75
2022/07/20 11:54:06;;;;;;;8.30;7.15;;;10.00;99.90;;;;;;5043008;28;20441;-75
2022/07/20 11:56:36;;;;;;;8.27;5.65;;;9.90;99.90;;;;;;5040500;28;20021;-75
2022/07/20 11:59:08;;;;;;;7.43;5.82;;;9.90;99.90;;;;;;5039420;28;20022;-75
2022/07/20 12:01:37;;;;;;;7.25;5.68;;;9.90;99.90;;;;;;5033910;28;20117;-74
2022/07/20 12:04:15;;;;;;;6.10;5.25;;;9.90;99.90;;;;;;5033305;28;20071;-72
2022/07/20 12:06:43;;;;;;;6.32;5.72;;;9.80;99.90;;;;;;5033420;28;20087;-75
2022/07/20 12:09:18;;;;;;;9.73;5.88;;;9.80;99.90;;;;;;5034441;28;20025;-73
2022/07/20 12:12:05;;;;;;;7.38;6.07;;;9.80;99.90;;;;;;5047254;28;20119;-75
2022/07/20 12:14:34;;;;;;;7.30;5.65;;;9.80;99.90;;;;;;5041213;28;20493;-72
2022/07/20 12:17:13;;;;;;;7.32;6.55;;;9.80;99.90;;;;;;5041286;28;20033;-75
2022/07/20 12:19:46;;;;;;;7.07;6.32;;;9.80;99.90;;;;;;5039264;28;20014;-75
2022/07/20 12:22:21;;;;;;;7.63;6.20;;;9.80;99.90;;;;;;5040085;28;20021;-72
2022/07/20 12:24:59;;;;;;;9.63;6.22;;;9.80;99.90;;;;;;5036320;28;21448;-75
2022/07/20 12:27:32;;;;;;;11.63;8.90;;;9.80;99.90;;;;;;5039267;28;20056;-75
2022/07/20 12:30:20;;;;;;;12.13;8.25;;;9.80;99.90;;;;;;5044686;28;20024;-75
2022/07/20 12:33:01;;;;;;;15.45;9.85;;;9.80;99.90;;;;;;5037886;28;20027;-75
2022/07/20 12:35:29;;;;;;;9.45;7.00;;;9.80;99.90;;;;;;5045451;28;20033;-75
2022/07/20 12:37:57;;;;;;;7.43;6.53;;;9.80;99.90;;;;;;5053810;28;20457;-74
2022/07/20 12:40:36;;;;;;;8.52;6.45;;;9.80;99.90;;;;;;5052136;28;20401;-76
2022/07/20 12:43:25;;;;;;;6.85;5.15;;;9.80;99.90;;;;;;5053290;28;20021;-75
2022/07/20 12:45:54;;;;;;;9.93;6.00;;;9.80;99.90;;;;;;5054695;28;20053;-75
2022/07/20 12:48:21;;;;;;;7.38;6.28;;;9.90;99.90;;;;;;5054166;28;20099;-75
2022/07/20 12:50:49;;;;;;;7.03;6.18;;;9.80;99.90;;;;;;5072352;28;20033;-75
2022/07/20 12:53:17;;;;;;;10.43;7.03;;;9.80;99.90;;;;;;5055864;28;20024;-75
2022/07/20 12:55:45;;;;;;;8.60;6.88;;;9.80;99.90;;;;;;5064605;28;20020;-73
2022/07/20 12:58:13;;;;;;;7.78;6.00;;;9.80;99.90;;;;;;5062487;28;20016;-74
2022/07/20 13:00:41;;;;;;;7.50;6.00;;;9.80;99.90;;;;;;5055938;28;20501;-74
2022/07/20 13:03:09;;;;;;;7.28;5.88;;;9.70;99.90;;;;;;5063168;28;20048;-74
2022/07/20 13:05:40;;;;;;;8.43;6.65;;;9.70;99.90;;;;;;5074245;28;20123;-72